Port Harcourt, Nigeria
Current Conditions -  °F | °C
As of 9:00 AM on Monday 22 Dec 2014 (Local Time) from FGSL Reporting Station
Few Clouds Few Clouds  
Wind Chill: 79°   Ceiling: Unl
Heat Index: 82°   Visibility: 5mi
Dew Point: 72°   Wind: 0mph
Humidity: 78%   Direction: NA
Pressure: 29.94"   Gusts: NA
Location:  4.78°N, 7°E
Report Text: FGSL 220800Z 00000KT 8000 FEW010 FEW020CB 26/22 Q1014 NOSIG
Loading
Personal Weather Stations






























Interactive Weather Map New forecast layout! Learn more

10-Day Weather Forecast

Advertisements
Track Severe Weather on mobile